sensor_id;sensor_type;location;lat;lon;timestamp;temperature;humidity
68922;DHT22;55959;51.244;5.724;2023-09-08T00:01:44;24.60;53.60
68922;DHT22;55959;51.244;5.724;2023-09-08T00:04:12;24.50;53.10
68922;DHT22;55959;51.244;5.724;2023-09-08T00:06:41;24.50;53.20
68922;DHT22;55959;51.244;5.724;2023-09-08T00:09:07;24.50;53.30
68922;DHT22;55959;51.244;5.724;2023-09-08T00:11:37;24.40;53.40
68922;DHT22;55959;51.244;5.724;2023-09-08T00:14:04;24.40;53.60
68922;DHT22;55959;51.244;5.724;2023-09-08T00:16:40;24.40;53.80
68922;DHT22;55959;51.244;5.724;2023-09-08T00:19:12;24.30;54.00
68922;DHT22;55959;51.244;5.724;2023-09-08T00:21:45;24.30;54.20
68922;DHT22;55959;51.244;5.724;2023-09-08T00:24:10;24.20;54.30
68922;DHT22;55959;51.244;5.724;2023-09-08T00:26:37;24.20;54.40
68922;DHT22;55959;51.244;5.724;2023-09-08T00:29:03;24.20;54.50
68922;DHT22;55959;51.244;5.724;2023-09-08T00:31:30;24.10;54.50
68922;DHT22;55959;51.244;5.724;2023-09-08T00:33:56;24.10;54.50
68922;DHT22;55959;51.244;5.724;2023-09-08T00:36:21;24.10;54.50
68922;DHT22;55959;51.244;5.724;2023-09-08T00:38:48;24.10;54.60
68922;DHT22;55959;51.244;5.724;2023-09-08T00:41:25;24.00;54.60
68922;DHT22;55959;51.244;5.724;2023-09-08T00:43:51;24.00;54.70
68922;DHT22;55959;51.244;5.724;2023-09-08T00:46:18;24.00;54.80
68922;DHT22;55959;51.244;5.724;2023-09-08T00:48:43;23.90;54.90
68922;DHT22;55959;51.244;5.724;2023-09-08T00:51:12;23.90;54.90
68922;DHT22;55959;51.244;5.724;2023-09-08T00:53:41;23.90;55.00
68922;DHT22;55959;51.244;5.724;2023-09-08T00:56:07;23.90;55.00
68922;DHT22;55959;51.244;5.724;2023-09-08T00:58:35;23.80;55.10
68922;DHT22;55959;51.244;5.724;2023-09-08T01:01:06;23.80;55.20
68922;DHT22;55959;51.244;5.724;2023-09-08T01:03:34;23.70;55.20
68922;DHT22;55959;51.244;5.724;2023-09-08T01:06:05;23.70;55.20
68922;DHT22;55959;51.244;5.724;2023-09-08T01:08:42;23.70;55.40
68922;DHT22;55959;51.244;5.724;2023-09-08T01:11:19;23.70;55.50
68922;DHT22;55959;51.244;5.724;2023-09-08T01:13:50;23.60;55.50
68922;DHT22;55959;51.244;5.724;2023-09-08T01:16:16;23.60;55.50
68922;DHT22;55959;51.244;5.724;2023-09-08T01:18:44;23.50;55.50
68922;DHT22;55959;51.244;5.724;2023-09-08T01:27:12;23.40;55.90
68922;DHT22;55959;51.244;5.724;2023-09-08T01:29:45;23.40;56.00
68922;DHT22;55959;51.244;5.724;2023-09-08T01:32:14;23.40;56.00
68922;DHT22;55959;51.244;5.724;2023-09-08T01:34:40;23.30;56.00
68922;DHT22;55959;51.244;5.724;2023-09-08T01:37:13;23.30;56.10
68922;DHT22;55959;51.244;5.724;2023-09-08T01:39:47;23.30;56.10
68922;DHT22;55959;51.244;5.724;2023-09-08T01:42:13;23.20;56.10
68922;DHT22;55959;51.244;5.724;2023-09-08T01:44:38;23.20;56.20
68922;DHT22;55959;51.244;5.724;2023-09-08T01:47:09;23.20;56.30
68922;DHT22;55959;51.244;5.724;2023-09-08T01:49:50;23.10;56.30
68922;DHT22;55959;51.244;5.724;2023-09-08T01:52:16;23.10;56.40
68922;DHT22;55959;51.244;5.724;2023-09-08T01:54:51;23.10;56.40
68922;DHT22;55959;51.244;5.724;2023-09-08T01:57:22;23.10;56.60
68922;DHT22;55959;51.244;5.724;2023-09-08T01:59:48;23.00;56.50
68922;DHT22;55959;51.244;5.724;2023-09-08T02:02:16;23.00;56.60
68922;DHT22;55959;51.244;5.724;2023-09-08T02:04:42;22.90;56.70
68922;DHT22;55959;51.244;5.724;2023-09-08T02:07:08;22.90;56.70
68922;DHT22;55959;51.244;5.724;2023-09-08T02:09:37;22.90;56.70
68922;DHT22;55959;51.244;5.724;2023-09-08T02:12:03;22.80;56.80
68922;DHT22;55959;51.244;5.724;2023-09-08T02:14:30;22.80;56.90
68922;DHT22;55959;51.244;5.724;2023-09-08T02:16:56;22.80;56.90
68922;DHT22;55959;51.244;5.724;2023-09-08T02:19:23;22.80;57.00
68922;DHT22;55959;51.244;5.724;2023-09-08T02:21:50;22.70;57.00
68922;DHT22;55959;51.244;5.724;2023-09-08T02:24:17;22.70;57.10
68922;DHT22;55959;51.244;5.724;2023-09-08T02:26:43;22.70;57.10
68922;DHT22;55959;51.244;5.724;2023-09-08T02:29:09;22.70;57.20
68922;DHT22;55959;51.244;5.724;2023-09-08T02:31:41;22.60;57.10
68922;DHT22;55959;51.244;5.724;2023-09-08T02:34:11;22.60;57.20
68922;DHT22;55959;51.244;5.724;2023-09-08T02:36:38;22.60;57.40
68922;DHT22;55959;51.244;5.724;2023-09-08T02:39:06;22.60;57.50
68922;DHT22;55959;51.244;5.724;2023-09-08T02:41:34;22.50;57.60
68922;DHT22;55959;51.244;5.724;2023-09-08T02:44:01;22.50;57.60
68922;DHT22;55959;51.244;5.724;2023-09-08T02:46:29;22.50;57.70
68922;DHT22;55959;51.244;5.724;2023-09-08T02:48:55;22.40;57.80
68922;DHT22;55959;51.244;5.724;2023-09-08T02:51:24;22.40;57.90
68922;DHT22;55959;51.244;5.724;2023-09-08T02:53:50;22.40;58.00
68922;DHT22;55959;51.244;5.724;2023-09-08T02:56:19;22.40;58.10
68922;DHT22;55959;51.244;5.724;2023-09-08T02:58:46;22.30;58.30
68922;DHT22;55959;51.244;5.724;2023-09-08T03:01:16;22.30;58.30
68922;DHT22;55959;51.244;5.724;2023-09-08T03:03:46;22.30;58.30
68922;DHT22;55959;51.244;5.724;2023-09-08T03:06:15;22.30;58.40
68922;DHT22;55959;51.244;5.724;2023-09-08T03:08:46;22.20;58.30
68922;DHT22;55959;51.244;5.724;2023-09-08T03:11:13;22.20;58.40
68922;DHT22;55959;51.244;5.724;2023-09-08T03:13:40;22.20;58.50
68922;DHT22;55959;51.244;5.724;2023-09-08T03:16:06;22.20;58.60
68922;DHT22;55959;51.244;5.724;2023-09-08T03:18:36;22.10;58.70
68922;DHT22;55959;51.244;5.724;2023-09-08T03:21:04;22.10;58.70
68922;DHT22;55959;51.244;5.724;2023-09-08T03:23:38;22.10;58.80
68922;DHT22;55959;51.244;5.724;2023-09-08T03:26:04;22.10;58.90
68922;DHT22;55959;51.244;5.724;2023-09-08T03:28:37;22.00;58.90
68922;DHT22;55959;51.244;5.724;2023-09-08T03:31:06;22.00;59.00
68922;DHT22;55959;51.244;5.724;2023-09-08T03:33:32;22.00;59.10
68922;DHT22;55959;51.244;5.724;2023-09-08T03:35:58;22.00;59.10
68922;DHT22;55959;51.244;5.724;2023-09-08T03:38:23;22.00;59.30
68922;DHT22;55959;51.244;5.724;2023-09-08T03:40:53;21.90;59.20
68922;DHT22;55959;51.244;5.724;2023-09-08T03:43:19;21.90;59.30
68922;DHT22;55959;51.244;5.724;2023-09-08T03:45:45;21.90;59.50
68922;DHT22;55959;51.244;5.724;2023-09-08T03:48:12;21.90;59.60
68922;DHT22;55959;51.244;5.724;2023-09-08T03:50:38;21.90;59.60
68922;DHT22;55959;51.244;5.724;2023-09-08T03:53:04;21.80;59.60
68922;DHT22;55959;51.244;5.724;2023-09-08T03:55:32;21.80;59.70
68922;DHT22;55959;51.244;5.724;2023-09-08T03:57:57;21.80;59.80
68922;DHT22;55959;51.244;5.724;2023-09-08T04:00:23;21.80;59.90
68922;DHT22;55959;51.244;5.724;2023-09-08T04:02:51;21.70;59.90
68922;DHT22;55959;51.244;5.724;2023-09-08T04:05:17;21.70;59.90
68922;DHT22;55959;51.244;5.724;2023-09-08T04:07:47;21.70;59.90
68922;DHT22;55959;51.244;5.724;2023-09-08T04:10:13;21.70;60.00
68922;DHT22;55959;51.244;5.724;2023-09-08T04:12:40;21.60;60.00
68922;DHT22;55959;51.244;5.724;2023-09-08T04:15:06;21.60;60.10
68922;DHT22;55959;51.244;5.724;2023-09-08T04:17:33;21.60;60.20
68922;DHT22;55959;51.244;5.724;2023-09-08T04:19:59;21.60;60.20
68922;DHT22;55959;51.244;5.724;2023-09-08T04:22:24;21.60;60.50
68922;DHT22;55959;51.244;5.724;2023-09-08T04:24:50;21.60;60.50
68922;DHT22;55959;51.244;5.724;2023-09-08T04:27:16;21.50;60.40
68922;DHT22;55959;51.244;5.724;2023-09-08T04:29:44;21.50;60.40
68922;DHT22;55959;51.244;5.724;2023-09-08T04:32:09;21.50;60.70
68922;DHT22;55959;51.244;5.724;2023-09-08T04:34:41;21.50;60.80
68922;DHT22;55959;51.244;5.724;2023-09-08T04:37:08;21.50;60.90
68922;DHT22;55959;51.244;5.724;2023-09-08T04:39:35;21.40;60.80
68922;DHT22;55959;51.244;5.724;2023-09-08T04:42:03;21.40;61.00
68922;DHT22;55959;51.244;5.724;2023-09-08T04:44:29;21.40;61.00
68922;DHT22;55959;51.244;5.724;2023-09-08T04:46:55;21.40;61.00
68922;DHT22;55959;51.244;5.724;2023-09-08T04:49:21;21.30;61.00
68922;DHT22;55959;51.244;5.724;2023-09-08T04:51:51;21.30;61.20
68922;DHT22;55959;51.244;5.724;2023-09-08T04:54:17;21.30;61.30
68922;DHT22;55959;51.244;5.724;2023-09-08T04:56:43;21.30;61.30
68922;DHT22;55959;51.244;5.724;2023-09-08T04:59:10;21.30;61.30
68922;DHT22;55959;51.244;5.724;2023-09-08T05:01:37;21.30;61.30
68922;DHT22;55959;51.244;5.724;2023-09-08T05:04:04;21.20;61.30
68922;DHT22;55959;51.244;5.724;2023-09-08T05:06:31;21.20;61.50
68922;DHT22;55959;51.244;5.724;2023-09-08T05:08:58;21.20;61.60
68922;DHT22;55959;51.244;5.724;2023-09-08T05:11:26;21.20;61.80
68922;DHT22;55959;51.244;5.724;2023-09-08T05:13:56;21.20;62.00
68922;DHT22;55959;51.244;5.724;2023-09-08T05:16:24;21.10;62.00
68922;DHT22;55959;51.244;5.724;2023-09-08T05:19:11;21.10;62.20
68922;DHT22;55959;51.244;5.724;2023-09-08T05:21:39;21.10;62.10
68922;DHT22;55959;51.244;5.724;2023-09-08T05:24:09;21.10;62.10
68922;DHT22;55959;51.244;5.724;2023-09-08T05:26:37;21.00;62.10
68922;DHT22;55959;51.244;5.724;2023-09-08T05:29:05;21.10;62.40
68922;DHT22;55959;51.244;5.724;2023-09-08T05:31:32;21.10;62.50
68922;DHT22;55959;51.244;5.724;2023-09-08T05:33:58;21.00;62.50
68922;DHT22;55959;51.244;5.724;2023-09-08T05:36:23;21.00;62.60
68922;DHT22;55959;51.244;5.724;2023-09-08T05:38:49;21.00;62.70
68922;DHT22;55959;51.244;5.724;2023-09-08T05:41:19;21.10;62.70
68922;DHT22;55959;51.244;5.724;2023-09-08T05:43:51;21.00;62.50
68922;DHT22;55959;51.244;5.724;2023-09-08T05:46:17;21.00;62.40
68922;DHT22;55959;51.244;5.724;2023-09-08T05:48:43;21.00;62.50
68922;DHT22;55959;51.244;5.724;2023-09-08T05:51:09;21.00;62.40
68922;DHT22;55959;51.244;5.724;2023-09-08T05:53:35;21.00;62.20
68922;DHT22;55959;51.244;5.724;2023-09-08T05:56:01;21.00;62.30
68922;DHT22;55959;51.244;5.724;2023-09-08T05:58:27;21.00;62.40
68922;DHT22;55959;51.244;5.724;2023-09-08T06:00:53;21.00;62.80
68922;DHT22;55959;51.244;5.724;2023-09-08T06:03:19;21.00;62.80
68922;DHT22;55959;51.244;5.724;2023-09-08T06:05:45;21.00;62.80
68922;DHT22;55959;51.244;5.724;2023-09-08T06:08:11;21.00;63.00
68922;DHT22;55959;51.244;5.724;2023-09-08T06:10:38;21.10;63.10
68922;DHT22;55959;51.244;5.724;2023-09-08T06:13:04;21.10;63.30
68922;DHT22;55959;51.244;5.724;2023-09-08T06:15:30;21.10;63.30
68922;DHT22;55959;51.244;5.724;2023-09-08T06:17:56;21.10;63.30
68922;DHT22;55959;51.244;5.724;2023-09-08T06:20:21;21.20;63.50
68922;DHT22;55959;51.244;5.724;2023-09-08T06:22:47;21.20;63.60
68922;DHT22;55959;51.244;5.724;2023-09-08T06:25:13;21.20;63.70
68922;DHT22;55959;51.244;5.724;2023-09-08T06:27:39;21.20;63.70
68922;DHT22;55959;51.244;5.724;2023-09-08T06:30:05;21.30;63.80
68922;DHT22;55959;51.244;5.724;2023-09-08T06:32:31;21.30;64.00
68922;DHT22;55959;51.244;5.724;2023-09-08T06:34:58;21.30;64.00
68922;DHT22;55959;51.244;5.724;2023-09-08T06:37:23;21.40;64.10
68922;DHT22;55959;51.244;5.724;2023-09-08T06:39:49;21.40;64.10
68922;DHT22;55959;51.244;5.724;2023-09-08T06:42:15;21.40;64.00
68922;DHT22;55959;51.244;5.724;2023-09-08T06:44:40;21.50;64.20
68922;DHT22;55959;51.244;5.724;2023-09-08T06:47:06;21.50;64.30
68922;DHT22;55959;51.244;5.724;2023-09-08T06:49:33;21.60;64.50
68922;DHT22;55959;51.244;5.724;2023-09-08T06:51:59;21.70;64.80
68922;DHT22;55959;51.244;5.724;2023-09-08T06:54:24;21.80;65.00
68922;DHT22;55959;51.244;5.724;2023-09-08T06:56:50;22.00;64.90
68922;DHT22;55959;51.244;5.724;2023-09-08T06:59:16;22.10;64.90
68922;DHT22;55959;51.244;5.724;2023-09-08T07:01:42;22.30;64.80
68922;DHT22;55959;51.244;5.724;2023-09-08T07:04:08;22.40;64.60
68922;DHT22;55959;51.244;5.724;2023-09-08T07:06:35;22.50;64.30
68922;DHT22;55959;51.244;5.724;2023-09-08T07:09:02;22.70;64.30
68922;DHT22;55959;51.244;5.724;2023-09-08T07:11:28;22.80;64.00
68922;DHT22;55959;51.244;5.724;2023-09-08T07:13:54;23.00;63.60
68922;DHT22;55959;51.244;5.724;2023-09-08T07:16:21;23.10;63.30
68922;DHT22;55959;51.244;5.724;2023-09-08T07:18:46;23.20;62.90
68922;DHT22;55959;51.244;5.724;2023-09-08T07:21:12;23.20;62.40
68922;DHT22;55959;51.244;5.724;2023-09-08T07:23:38;23.30;62.20
68922;DHT22;55959;51.244;5.724;2023-09-08T07:26:04;23.30;62.00
68922;DHT22;55959;51.244;5.724;2023-09-08T07:28:30;23.40;62.00
68922;DHT22;55959;51.244;5.724;2023-09-08T07:31:03;23.50;61.90
68922;DHT22;55959;51.244;5.724;2023-09-08T07:33:29;23.50;61.80
68922;DHT22;55959;51.244;5.724;2023-09-08T07:35:55;23.50;61.70
68922;DHT22;55959;51.244;5.724;2023-09-08T07:38:20;23.60;61.50
68922;DHT22;55959;51.244;5.724;2023-09-08T07:40:46;23.60;61.10
68922;DHT22;55959;51.244;5.724;2023-09-08T07:43:12;23.70;61.00
68922;DHT22;55959;51.244;5.724;2023-09-08T07:45:37;23.70;60.90
68922;DHT22;55959;51.244;5.724;2023-09-08T07:48:06;23.70;60.90
68922;DHT22;55959;51.244;5.724;2023-09-08T07:50:31;23.80;60.80
68922;DHT22;55959;51.244;5.724;2023-09-08T07:52:57;23.90;61.10
68922;DHT22;55959;51.244;5.724;2023-09-08T07:55:24;23.90;61.30
68922;DHT22;55959;51.244;5.724;2023-09-08T07:57:53;23.90;61.50
68922;DHT22;55959;51.244;5.724;2023-09-08T08:00:19;24.00;61.70
68922;DHT22;55959;51.244;5.724;2023-09-08T08:02:53;24.00;61.60
68922;DHT22;55959;51.244;5.724;2023-09-08T08:05:19;24.10;61.70
68922;DHT22;55959;51.244;5.724;2023-09-08T08:07:46;24.10;61.60
68922;DHT22;55959;51.244;5.724;2023-09-08T08:10:12;24.20;61.30
68922;DHT22;55959;51.244;5.724;2023-09-08T08:12:39;24.30;61.10
68922;DHT22;55959;51.244;5.724;2023-09-08T08:15:08;24.30;61.10
68922;DHT22;55959;51.244;5.724;2023-09-08T08:17:36;24.40;60.90
68922;DHT22;55959;51.244;5.724;2023-09-08T08:20:05;24.40;60.60
68922;DHT22;55959;51.244;5.724;2023-09-08T08:22:33;24.50;60.30
68922;DHT22;55959;51.244;5.724;2023-09-08T08:24:59;24.60;60.30
68922;DHT22;55959;51.244;5.724;2023-09-08T08:27:25;24.70;60.20
68922;DHT22;55959;51.244;5.724;2023-09-08T08:29:51;24.70;60.10
68922;DHT22;55959;51.244;5.724;2023-09-08T08:32:17;24.80;60.20
68922;DHT22;55959;51.244;5.724;2023-09-08T08:34:43;24.90;60.30
68922;DHT22;55959;51.244;5.724;2023-09-08T08:37:11;25.00;60.40
68922;DHT22;55959;51.244;5.724;2023-09-08T08:39:37;25.00;60.30
68922;DHT22;55959;51.244;5.724;2023-09-08T08:42:09;25.10;60.20
68922;DHT22;55959;51.244;5.724;2023-09-08T08:44:38;25.20;60.30
68922;DHT22;55959;51.244;5.724;2023-09-08T08:47:06;25.20;60.30
68922;DHT22;55959;51.244;5.724;2023-09-08T08:49:33;25.30;60.10
68922;DHT22;55959;51.244;5.724;2023-09-08T08:51:59;25.40;59.90
68922;DHT22;55959;51.244;5.724;2023-09-08T08:54:29;25.40;59.90
68922;DHT22;55959;51.244;5.724;2023-09-08T08:56:56;25.50;59.90
68922;DHT22;55959;51.244;5.724;2023-09-08T08:59:21;25.60;59.80
68922;DHT22;55959;51.244;5.724;2023-09-08T09:01:50;25.70;59.70
68922;DHT22;55959;51.244;5.724;2023-09-08T09:04:16;25.70;59.60
68922;DHT22;55959;51.244;5.724;2023-09-08T09:06:43;25.80;59.50
68922;DHT22;55959;51.244;5.724;2023-09-08T09:09:08;25.90;59.40
68922;DHT22;55959;51.244;5.724;2023-09-08T09:11:36;25.90;59.40
68922;DHT22;55959;51.244;5.724;2023-09-08T09:14:02;26.00;59.30
68922;DHT22;55959;51.244;5.724;2023-09-08T09:16:28;26.10;59.10
68922;DHT22;55959;51.244;5.724;2023-09-08T09:18:56;26.10;58.70
68922;DHT22;55959;51.244;5.724;2023-09-08T09:21:23;26.20;58.50
68922;DHT22;55959;51.244;5.724;2023-09-08T09:23:50;26.30;58.40
68922;DHT22;55959;51.244;5.724;2023-09-08T09:26:25;26.40;58.40
68922;DHT22;55959;51.244;5.724;2023-09-08T09:28:52;26.50;58.40
68922;DHT22;55959;51.244;5.724;2023-09-08T09:31:23;26.60;58.00
68922;DHT22;55959;51.244;5.724;2023-09-08T09:34:02;26.70;57.30
68922;DHT22;55959;51.244;5.724;2023-09-08T09:36:31;26.80;57.30
68922;DHT22;55959;51.244;5.724;2023-09-08T09:39:00;26.80;56.10
68922;DHT22;55959;51.244;5.724;2023-09-08T09:41:28;26.90;56.10
68922;DHT22;55959;51.244;5.724;2023-09-08T09:43:56;26.90;55.20
68922;DHT22;55959;51.244;5.724;2023-09-08T09:46:22;27.10;55.20
68922;DHT22;55959;51.244;5.724;2023-09-08T09:48:53;27.10;55.30
68922;DHT22;55959;51.244;5.724;2023-09-08T09:51:21;27.20;55.40
68922;DHT22;55959;51.244;5.724;2023-09-08T09:53:50;27.20;55.30
68922;DHT22;55959;51.244;5.724;2023-09-08T09:56:17;27.30;55.10
68922;DHT22;55959;51.244;5.724;2023-09-08T09:58:44;27.30;55.10
68922;DHT22;55959;51.244;5.724;2023-09-08T10:01:11;27.40;55.40
68922;DHT22;55959;51.244;5.724;2023-09-08T10:03:40;27.50;54.90
68922;DHT22;55959;51.244;5.724;2023-09-08T10:06:06;27.50;54.90
68922;DHT22;55959;51.244;5.724;2023-09-08T10:08:34;27.60;54.90
68922;DHT22;55959;51.244;5.724;2023-09-08T10:11:07;27.70;54.90
68922;DHT22;55959;51.244;5.724;2023-09-08T10:13:39;27.80;54.90
68922;DHT22;55959;51.244;5.724;2023-09-08T10:16:08;27.80;55.40
68922;DHT22;55959;51.244;5.724;2023-09-08T10:18:35;27.80;54.40
68922;DHT22;55959;51.244;5.724;2023-09-08T10:21:04;27.90;54.20
68922;DHT22;55959;51.244;5.724;2023-09-08T10:23:43;28.00;54.30
68922;DHT22;55959;51.244;5.724;2023-09-08T10:26:18;28.10;54.30
68922;DHT22;55959;51.244;5.724;2023-09-08T10:28:47;28.10;54.30
68922;DHT22;55959;51.244;5.724;2023-09-08T10:31:14;28.20;54.30
68922;DHT22;55959;51.244;5.724;2023-09-08T10:33:41;28.30;54.60
68922;DHT22;55959;51.244;5.724;2023-09-08T10:36:09;28.30;54.40
68922;DHT22;55959;51.244;5.724;2023-09-08T10:38:35;28.40;54.50
68922;DHT22;55959;51.244;5.724;2023-09-08T10:43:54;28.60;53.60
68922;DHT22;55959;51.244;5.724;2023-09-08T10:46:27;28.60;53.60
68922;DHT22;55959;51.244;5.724;2023-09-08T10:48:54;28.70;53.30
68922;DHT22;55959;51.244;5.724;2023-09-08T10:51:20;28.70;53.50
68922;DHT22;55959;51.244;5.724;2023-09-08T10:53:48;28.80;53.40
68922;DHT22;55959;51.244;5.724;2023-09-08T10:56:15;28.90;53.40
68922;DHT22;55959;51.244;5.724;2023-09-08T10:58:42;28.90;53.40
68922;DHT22;55959;51.244;5.724;2023-09-08T11:01:15;29.00;53.50
68922;DHT22;55959;51.244;5.724;2023-09-08T11:03:44;29.10;53.30
68922;DHT22;55959;51.244;5.724;2023-09-08T11:06:16;29.20;52.80
68922;DHT22;55959;51.244;5.724;2023-09-08T11:08:47;29.20;52.80
68922;DHT22;55959;51.244;5.724;2023-09-08T11:11:16;29.30;52.90
68922;DHT22;55959;51.244;5.724;2023-09-08T11:13:42;29.40;53.00
68922;DHT22;55959;51.244;5.724;2023-09-08T11:16:11;29.40;52.70
68922;DHT22;55959;51.244;5.724;2023-09-08T11:18:37;29.50;52.60
68922;DHT22;55959;51.244;5.724;2023-09-08T11:21:08;29.60;52.40
68922;DHT22;55959;51.244;5.724;2023-09-08T11:23:34;29.60;52.10
68922;DHT22;55959;51.244;5.724;2023-09-08T11:26:00;29.70;51.80
68922;DHT22;55959;51.244;5.724;2023-09-08T11:28:27;29.80;52.20
68922;DHT22;55959;51.244;5.724;2023-09-08T11:30:54;29.80;52.20
68922;DHT22;55959;51.244;5.724;2023-09-08T11:33:22;29.90;51.80
68922;DHT22;55959;51.244;5.724;2023-09-08T11:35:52;29.90;51.90
68922;DHT22;55959;51.244;5.724;2023-09-08T11:38:25;30.00;51.60
68922;DHT22;55959;51.244;5.724;2023-09-08T11:40:53;30.10;51.60
68922;DHT22;55959;51.244;5.724;2023-09-08T11:43:19;30.10;51.50
68922;DHT22;55959;51.244;5.724;2023-09-08T11:45:45;30.20;51.30
68922;DHT22;55959;51.244;5.724;2023-09-08T11:48:11;30.30;51.20
68922;DHT22;55959;51.244;5.724;2023-09-08T11:50:36;30.30;50.70
68922;DHT22;55959;51.244;5.724;2023-09-08T11:53:02;30.40;50.80
68922;DHT22;55959;51.244;5.724;2023-09-08T11:55:28;30.40;50.80
68922;DHT22;55959;51.244;5.724;2023-09-08T11:57:55;30.50;50.40
68922;DHT22;55959;51.244;5.724;2023-09-08T12:00:26;30.60;50.30
68922;DHT22;55959;51.244;5.724;2023-09-08T12:02:53;30.60;49.90
68922;DHT22;55959;51.244;5.724;2023-09-08T12:05:26;30.70;49.70
68922;DHT22;55959;51.244;5.724;2023-09-08T12:07:57;30.80;49.60
68922;DHT22;55959;51.244;5.724;2023-09-08T12:10:24;30.80;49.60
68922;DHT22;55959;51.244;5.724;2023-09-08T12:12:55;30.90;50.10
68922;DHT22;55959;51.244;5.724;2023-09-08T12:15:38;31.00;49.50
68922;DHT22;55959;51.244;5.724;2023-09-08T12:18:07;31.00;48.60
68922;DHT22;55959;51.244;5.724;2023-09-08T12:20:35;31.10;48.90
68922;DHT22;55959;51.244;5.724;2023-09-08T12:23:06;31.10;48.90
68922;DHT22;55959;51.244;5.724;2023-09-08T12:25:48;31.20;48.70
68922;DHT22;55959;51.244;5.724;2023-09-08T12:28:17;31.20;48.40
68922;DHT22;55959;51.244;5.724;2023-09-08T12:30:45;31.30;48.30
68922;DHT22;55959;51.244;5.724;2023-09-08T12:33:11;31.40;47.90
68922;DHT22;55959;51.244;5.724;2023-09-08T12:35:43;31.40;48.00
68922;DHT22;55959;51.244;5.724;2023-09-08T12:38:10;31.50;47.50
68922;DHT22;55959;51.244;5.724;2023-09-08T12:40:37;31.50;47.60
68922;DHT22;55959;51.244;5.724;2023-09-08T12:43:04;31.60;47.30
68922;DHT22;55959;51.244;5.724;2023-09-08T12:45:30;31.70;46.90
68922;DHT22;55959;51.244;5.724;2023-09-08T12:47:59;31.70;47.30
68922;DHT22;55959;51.244;5.724;2023-09-08T12:50:27;31.80;47.30
68922;DHT22;55959;51.244;5.724;2023-09-08T12:52:52;31.80;47.10
68922;DHT22;55959;51.244;5.724;2023-09-08T12:55:19;31.90;47.40
68922;DHT22;55959;51.244;5.724;2023-09-08T12:57:45;32.00;47.00
68922;DHT22;55959;51.244;5.724;2023-09-08T13:00:12;32.00;46.00
68922;DHT22;55959;51.244;5.724;2023-09-08T13:02:39;32.10;45.80
68922;DHT22;55959;51.244;5.724;2023-09-08T13:05:05;32.10;45.40
68922;DHT22;55959;51.244;5.724;2023-09-08T13:07:31;32.20;45.10
68922;DHT22;55959;51.244;5.724;2023-09-08T13:09:57;32.20;45.50
68922;DHT22;55959;51.244;5.724;2023-09-08T13:12:23;32.30;45.50
68922;DHT22;55959;51.244;5.724;2023-09-08T13:14:49;32.40;45.30
68922;DHT22;55959;51.244;5.724;2023-09-08T13:17:15;32.30;45.30
68922;DHT22;55959;51.244;5.724;2023-09-08T13:19:42;32.40;45.00
68922;DHT22;55959;51.244;5.724;2023-09-08T13:22:08;32.50;45.00
68922;DHT22;55959;51.244;5.724;2023-09-08T13:24:35;32.50;44.60
68922;DHT22;55959;51.244;5.724;2023-09-08T13:27:01;32.60;44.30
68922;DHT22;55959;51.244;5.724;2023-09-08T13:29:27;32.60;44.40
68922;DHT22;55959;51.244;5.724;2023-09-08T13:31:53;32.60;44.60
68922;DHT22;55959;51.244;5.724;2023-09-08T13:34:20;32.60;44.90
68922;DHT22;55959;51.244;5.724;2023-09-08T13:36:47;32.70;45.30
68922;DHT22;55959;51.244;5.724;2023-09-08T13:39:13;32.70;44.90
68922;DHT22;55959;51.244;5.724;2023-09-08T13:44:12;32.80;45.10
68922;DHT22;55959;51.244;5.724;2023-09-08T13:46:38;32.80;44.70
68922;DHT22;55959;51.244;5.724;2023-09-08T13:49:03;32.90;44.30
68922;DHT22;55959;51.244;5.724;2023-09-08T13:51:29;32.90;44.10
68922;DHT22;55959;51.244;5.724;2023-09-08T13:53:55;32.90;44.40
68922;DHT22;55959;51.244;5.724;2023-09-08T13:56:20;33.00;44.50
68922;DHT22;55959;51.244;5.724;2023-09-08T13:58:46;33.00;44.80
68922;DHT22;55959;51.244;5.724;2023-09-08T14:01:12;33.10;44.10
68922;DHT22;55959;51.244;5.724;2023-09-08T14:03:38;33.10;44.10
68922;DHT22;55959;51.244;5.724;2023-09-08T14:06:03;33.10;44.00
68922;DHT22;55959;51.244;5.724;2023-09-08T14:08:29;33.10;44.20
68922;DHT22;55959;51.244;5.724;2023-09-08T14:10:55;33.10;44.00
68922;DHT22;55959;51.244;5.724;2023-09-08T14:13:20;33.20;43.60
68922;DHT22;55959;51.244;5.724;2023-09-08T14:15:47;33.20;43.00
68922;DHT22;55959;51.244;5.724;2023-09-08T14:18:13;33.20;43.50
68922;DHT22;55959;51.244;5.724;2023-09-08T14:20:42;33.20;43.30
68922;DHT22;55959;51.244;5.724;2023-09-08T14:23:08;33.30;43.50
68922;DHT22;55959;51.244;5.724;2023-09-08T14:25:34;33.30;43.40
68922;DHT22;55959;51.244;5.724;2023-09-08T14:28:00;33.30;43.50
68922;DHT22;55959;51.244;5.724;2023-09-08T14:30:30;33.40;43.60
68922;DHT22;55959;51.244;5.724;2023-09-08T14:32:56;33.40;43.20
68922;DHT22;55959;51.244;5.724;2023-09-08T14:35:22;33.50;43.30
68922;DHT22;55959;51.244;5.724;2023-09-08T14:37:48;33.50;43.40
68922;DHT22;55959;51.244;5.724;2023-09-08T14:40:15;33.50;43.30
68922;DHT22;55959;51.244;5.724;2023-09-08T14:42:41;33.60;43.50
68922;DHT22;55959;51.244;5.724;2023-09-08T14:45:10;33.60;43.70
68922;DHT22;55959;51.244;5.724;2023-09-08T14:47:36;33.70;43.10
68922;DHT22;55959;51.244;5.724;2023-09-08T14:50:02;33.70;42.90
68922;DHT22;55959;51.244;5.724;2023-09-08T14:52:28;33.80;42.80
68922;DHT22;55959;51.244;5.724;2023-09-08T14:54:54;33.80;43.00
68922;DHT22;55959;51.244;5.724;2023-09-08T14:57:20;33.80;42.40
68922;DHT22;55959;51.244;5.724;2023-09-08T14:59:45;33.80;42.10
68922;DHT22;55959;51.244;5.724;2023-09-08T15:02:12;33.80;42.50
68922;DHT22;55959;51.244;5.724;2023-09-08T15:04:38;33.80;42.60
68922;DHT22;55959;51.244;5.724;2023-09-08T15:07:04;33.80;42.50
68922;DHT22;55959;51.244;5.724;2023-09-08T15:09:30;33.80;42.50
68922;DHT22;55959;51.244;5.724;2023-09-08T15:11:57;33.80;42.70
68922;DHT22;55959;51.244;5.724;2023-09-08T15:14:22;33.90;42.60
68922;DHT22;55959;51.244;5.724;2023-09-08T15:16:48;33.90;42.80
68922;DHT22;55959;51.244;5.724;2023-09-08T15:19:14;34.00;42.90
68922;DHT22;55959;51.244;5.724;2023-09-08T15:21:39;34.00;42.50
68922;DHT22;55959;51.244;5.724;2023-09-08T15:24:06;34.00;42.50
68922;DHT22;55959;51.244;5.724;2023-09-08T15:26:32;34.00;42.30
68922;DHT22;55959;51.244;5.724;2023-09-08T15:28:57;34.10;42.40
68922;DHT22;55959;51.244;5.724;2023-09-08T15:31:25;34.10;42.80
68922;DHT22;55959;51.244;5.724;2023-09-08T15:33:50;34.10;41.80
68922;DHT22;55959;51.244;5.724;2023-09-08T15:36:18;34.10;42.00
68922;DHT22;55959;51.244;5.724;2023-09-08T15:38:45;34.10;41.70
68922;DHT22;55959;51.244;5.724;2023-09-08T15:43:44;34.10;42.10
68922;DHT22;55959;51.244;5.724;2023-09-08T15:46:12;34.20;41.80